createdAt,value
2022-10-31T00:00:49.443Z,20.63
2022-10-31T00:03:18.160Z,23.15
2022-10-31T00:05:47.083Z,22.05
2022-10-31T00:08:13.534Z,17.30
2022-10-31T00:10:40.967Z,20.30
2022-10-31T00:13:08.590Z,15.05
2022-10-31T00:15:36.319Z,12.65
2022-10-31T00:18:03.876Z,18.50
2022-10-31T00:20:30.694Z,26.88
2022-10-31T00:23:04.081Z,26.35
2022-10-31T00:25:35.097Z,16.38
2022-10-31T00:28:02.078Z,28.30
2022-10-31T00:30:28.856Z,14.98
2022-10-31T00:32:55.302Z,19.27
2022-10-31T00:35:21.841Z,12.73
2022-10-31T00:37:48.366Z,18.20
2022-10-31T00:40:14.844Z,14.68
2022-10-31T00:42:42.641Z,17.67
2022-10-31T00:45:11.184Z,20.85
2022-10-31T00:47:38.338Z,25.20
2022-10-31T00:50:08.650Z,23.95
2022-10-31T00:52:35.593Z,12.82
2022-10-31T00:55:02.181Z,14.07
2022-10-31T00:57:28.642Z,19.98
2022-10-31T00:59:55.128Z,16.67
2022-10-31T01:02:22.432Z,23.17
2022-10-31T01:04:49.102Z,15.05
2022-10-31T01:07:15.654Z,12.85
2022-10-31T01:09:42.163Z,22.13
2022-10-31T01:12:09.237Z,17.27
2022-10-31T01:14:37.178Z,16.45
2022-10-31T01:17:03.881Z,24.17
2022-10-31T01:19:30.416Z,19.25
2022-10-31T01:21:56.945Z,20.38
2022-10-31T01:24:23.425Z,20.63
2022-10-31T01:26:49.891Z,13.68
2022-10-31T01:29:16.671Z,14.55
2022-10-31T01:31:43.132Z,16.33
2022-10-31T01:34:14.148Z,18.90
2022-10-31T01:36:40.844Z,19.38
2022-10-31T01:39:13.315Z,17.50
2022-10-31T01:41:46.201Z,17.45
2022-10-31T01:44:15.556Z,13.43
2022-10-31T01:46:46.134Z,20.45
2022-10-31T01:49:19.008Z,16.45
2022-10-31T01:51:58.141Z,17.05
2022-10-31T01:54:28.252Z,21.05
2022-10-31T01:56:57.358Z,19.27
2022-10-31T01:59:24.864Z,20.95
2022-10-31T02:01:52.401Z,16.50
2022-10-31T02:04:20.092Z,27.15
2022-10-31T02:07:08.619Z,19.27
2022-10-31T02:09:35.837Z,21.17
2022-10-31T02:12:02.824Z,17.35
2022-10-31T02:14:31.262Z,17.75
2022-10-31T02:16:58.364Z,17.73
2022-10-31T02:19:53.198Z,19.65
2022-10-31T02:22:41.661Z,18.63
2022-10-31T02:25:15.472Z,19.20
2022-10-31T02:28:06.910Z,13.52
2022-10-31T02:31:12.446Z,15.80
2022-10-31T02:33:52.388Z,17.77
2022-10-31T02:36:18.900Z,18.85
2022-10-31T02:38:55.394Z,21.45
2022-10-31T02:41:38.061Z,19.63
2022-10-31T02:44:19.739Z,15.57
2022-10-31T02:47:11.295Z,15.95
2022-10-31T02:49:50.111Z,14.60
2022-10-31T02:52:23.685Z,16.10
2022-10-31T02:54:50.716Z,17.63
2022-10-31T02:57:21.208Z,15.50
2022-10-31T02:59:51.307Z,22.83
2022-10-31T03:02:42.848Z,15.15
2022-10-31T03:05:15.373Z,18.98
2022-10-31T03:08:09.055Z,14.23
2022-10-31T03:10:48.963Z,17.17
2022-10-31T03:13:30.724Z,20.77
2022-10-31T03:16:04.151Z,12.18
2022-10-31T03:18:36.158Z,14.27
2022-10-31T03:21:06.100Z,16.25
2022-10-31T03:23:35.433Z,14.43
2022-10-31T03:26:03.502Z,15.65
2022-10-31T03:28:33.035Z,20.65
2022-10-31T03:31:02.335Z,16.58
2022-10-31T03:33:35.437Z,19.45
2022-10-31T03:36:04.057Z,16.48
2022-10-31T03:38:30.926Z,18.73
2022-10-31T03:40:59.575Z,18.35
2022-10-31T03:43:30.642Z,13.85
2022-10-31T03:45:57.567Z,11.07
2022-10-31T03:48:25.329Z,18.50
2022-10-31T03:50:59.578Z,18.45
2022-10-31T03:53:29.367Z,19.73
2022-10-31T03:56:03.512Z,17.60
2022-10-31T03:58:46.570Z,22.48
2022-10-31T04:01:16.299Z,19.65
2022-10-31T04:03:43.763Z,15.63
2022-10-31T04:06:12.433Z,20.73
2022-10-31T04:08:43.515Z,13.77
2022-10-31T04:11:10.814Z,19.40
2022-10-31T04:13:38.506Z,17.92
2022-10-31T04:16:05.325Z,15.60
2022-10-31T04:18:31.756Z,14.80
2022-10-31T04:21:06.382Z,15.15
2022-10-31T04:23:33.935Z,15.18
2022-10-31T04:26:00.528Z,15.85
2022-10-31T04:28:27.009Z,18.40
2022-10-31T04:30:53.475Z,14.73
2022-10-31T04:33:20.470Z,16.42
2022-10-31T04:35:47.465Z,17.80
2022-10-31T04:38:14.061Z,15.07
2022-10-31T04:40:40.589Z,16.85
2022-10-31T04:43:07.481Z,19.30
2022-10-31T04:45:33.981Z,12.98
2022-10-31T04:48:00.705Z,14.32
2022-10-31T04:50:27.462Z,20.90
2022-10-31T04:52:53.888Z,16.40
2022-10-31T04:55:20.340Z,20.50
2022-10-31T04:57:51.206Z,17.02
2022-10-31T05:00:21.280Z,16.38
2022-10-31T05:02:54.270Z,17.38
2022-10-31T05:05:24.946Z,19.48
2022-10-31T05:07:52.526Z,15.82
2022-10-31T05:10:22.441Z,15.00
2022-10-31T05:12:50.565Z,17.42
2022-10-31T05:15:18.123Z,25.77
2022-10-31T05:17:44.660Z,17.73
2022-10-31T05:20:12.579Z,21.77
2022-10-31T05:22:46.659Z,19.33
2022-10-31T05:25:13.501Z,18.38
2022-10-31T05:27:46.321Z,21.73
2022-10-31T05:30:14.381Z,19.85
2022-10-31T05:32:41.609Z,21.42
2022-10-31T05:35:18.462Z,22.13
2022-10-31T05:37:44.926Z,16.00
2022-10-31T05:40:13.979Z,22.10
2022-10-31T05:42:41.347Z,18.52
2022-10-31T05:45:09.882Z,21.95
2022-10-31T05:47:38.088Z,21.98
2022-10-31T05:50:05.241Z,26.58
2022-10-31T05:52:31.682Z,20.52
2022-10-31T05:54:58.248Z,16.75
2022-10-31T05:57:25.115Z,22.45
2022-10-31T05:59:55.134Z,21.08
2022-10-31T06:02:22.440Z,20.88
2022-10-31T06:04:49.143Z,21.30
2022-10-31T06:07:15.859Z,19.40
2022-10-31T06:09:42.368Z,28.33
2022-10-31T06:12:08.868Z,23.05
2022-10-31T06:14:35.304Z,26.17
2022-10-31T06:17:01.806Z,17.33
2022-10-31T06:19:28.275Z,19.30
2022-10-31T06:21:54.755Z,19.10
2022-10-31T06:24:21.213Z,20.17
2022-10-31T06:26:49.256Z,21.40
2022-10-31T06:29:15.744Z,18.83
2022-10-31T06:31:42.248Z,27.65
2022-10-31T06:34:09.583Z,14.73
2022-10-31T06:36:36.140Z,25.42
2022-10-31T06:39:02.615Z,21.48
2022-10-31T06:41:29.101Z,19.67
2022-10-31T06:43:55.519Z,22.02
2022-10-31T06:46:22.023Z,19.90
2022-10-31T06:48:49.466Z,16.80
2022-10-31T06:51:15.910Z,22.50
2022-10-31T06:53:42.481Z,21.38
2022-10-31T06:56:08.961Z,14.65
2022-10-31T06:58:35.412Z,17.33
2022-10-31T07:01:02.241Z,20.38
2022-10-31T07:03:28.778Z,17.63
2022-10-31T07:05:58.500Z,21.67
2022-10-31T07:08:25.613Z,20.27
2022-10-31T07:10:56.873Z,20.85
2022-10-31T07:13:26.582Z,26.98
2022-10-31T07:16:01.633Z,18.77
2022-10-31T07:18:28.606Z,21.08
2022-10-31T07:20:55.349Z,24.33
2022-10-31T07:23:25.730Z,21.80
2022-10-31T07:25:56.778Z,23.60
2022-10-31T07:28:23.866Z,26.30
2022-10-31T07:30:54.107Z,24.70
2022-10-31T07:33:21.167Z,23.40
2022-10-31T07:35:47.910Z,26.88
2022-10-31T07:38:15.592Z,26.55
2022-10-31T07:40:43.198Z,17.33
2022-10-31T07:43:14.524Z,25.50
2022-10-31T07:45:41.574Z,18.42
2022-10-31T07:48:08.039Z,20.23
2022-10-31T07:50:37.437Z,22.17
2022-10-31T07:53:04.770Z,23.52
2022-10-31T07:55:31.559Z,30.70
2022-10-31T07:58:18.453Z,28.80
2022-10-31T08:00:46.390Z,17.95
2022-10-31T08:03:18.405Z,24.05
2022-10-31T08:05:46.947Z,26.60
2022-10-31T08:08:14.422Z,26.40
2022-10-31T08:10:41.711Z,27.88
2022-10-31T08:13:13.588Z,22.23
2022-10-31T08:15:42.600Z,30.70
2022-10-31T08:18:14.080Z,22.95
2022-10-31T08:20:41.975Z,29.15
2022-10-31T08:23:10.077Z,24.50
2022-10-31T08:25:38.591Z,28.88
2022-10-31T08:28:06.767Z,30.33
2022-10-31T08:30:35.740Z,31.73
2022-10-31T08:33:03.833Z,23.73
2022-10-31T08:35:30.498Z,28.63
2022-10-31T08:37:57.715Z,28.73
2022-10-31T08:40:25.619Z,28.85
2022-10-31T08:42:59.680Z,29.88
2022-10-31T08:45:26.261Z,27.75
2022-10-31T08:47:52.836Z,28.05
2022-10-31T08:50:19.692Z,27.42
2022-10-31T08:53:04.227Z,28.85
2022-10-31T08:55:33.353Z,28.95
2022-10-31T08:58:00.496Z,24.00
2022-10-31T09:00:27.326Z,28.70
2022-10-31T09:03:01.755Z,26.58
2022-10-31T09:05:28.390Z,30.20
2022-10-31T09:08:03.707Z,36.85
2022-10-31T09:10:31.031Z,26.17
2022-10-31T09:12:58.490Z,31.88
2022-10-31T09:15:26.270Z,34.55
2022-10-31T09:17:53.246Z,34.60
2022-10-31T09:20:20.372Z,27.65
2022-10-31T09:22:47.135Z,28.25
2022-10-31T09:25:13.737Z,34.75
2022-10-31T09:27:40.178Z,36.72
2022-10-31T09:30:07.768Z,29.60
2022-10-31T09:32:34.224Z,28.25
2022-10-31T09:35:00.788Z,30.95
2022-10-31T09:37:28.235Z,31.75
2022-10-31T09:39:54.693Z,25.80
2022-10-31T09:42:45.772Z,36.03
2022-10-31T09:45:37.845Z,29.10
2022-10-31T09:48:23.216Z,32.63
2022-10-31T09:51:04.629Z,40.00
2022-10-31T09:53:39.851Z,30.75
2022-10-31T09:56:09.531Z,29.05
2022-10-31T09:58:44.723Z,33.88
2022-10-31T10:01:22.339Z,32.78
2022-10-31T10:03:51.462Z,38.45
2022-10-31T10:06:21.642Z,29.35
2022-10-31T10:08:48.201Z,34.55
2022-10-31T10:11:34.229Z,30.92
2022-10-31T10:14:19.130Z,29.48
2022-10-31T10:16:52.079Z,35.50
2022-10-31T10:19:45.984Z,39.92
2022-10-31T10:22:23.578Z,33.17
2022-10-31T10:25:30.566Z,35.00
2022-10-31T10:28:24.280Z,34.85
2022-10-31T10:31:01.640Z,36.28
2022-10-31T10:33:33.806Z,40.80
2022-10-31T10:36:06.970Z,40.00
2022-10-31T10:38:44.209Z,41.25
2022-10-31T10:41:17.512Z,37.35
2022-10-31T10:43:44.120Z,36.47
2022-10-31T10:46:50.760Z,44.50
2022-10-31T10:49:33.127Z,36.40
2022-10-31T10:55:04.190Z,39.08
2022-10-31T10:58:05.656Z,29.88
2022-10-31T11:00:42.853Z,33.05
2022-10-31T11:03:10.182Z,30.20
2022-10-31T11:05:52.850Z,30.25
2022-10-31T11:08:29.398Z,35.67
2022-10-31T11:10:58.929Z,32.92
2022-10-31T11:13:25.743Z,36.42
2022-10-31T11:15:55.140Z,34.88
2022-10-31T11:18:27.294Z,34.85
2022-10-31T11:20:56.117Z,49.83
2022-10-31T11:23:25.092Z,35.22
2022-10-31T11:26:06.491Z,38.20
2022-10-31T11:28:35.795Z,29.20
2022-10-31T11:31:09.632Z,32.10
2022-10-31T11:33:39.296Z,32.97
2022-10-31T11:36:27.333Z,29.95
2022-10-31T11:38:54.524Z,35.83
2022-10-31T11:41:35.531Z,38.03
2022-10-31T11:44:05.112Z,32.83
2022-10-31T11:46:35.903Z,38.90
2022-10-31T11:49:02.843Z,31.73
2022-10-31T11:51:32.568Z,38.30
2022-10-31T11:54:03.044Z,30.40
2022-10-31T11:56:43.252Z,31.30
2022-10-31T11:59:32.975Z,16.02
2022-10-31T12:02:02.439Z,23.25
2022-10-31T12:05:12.683Z,31.92
2022-10-31T12:07:39.157Z,31.75
2022-10-31T12:10:12.792Z,30.88
2022-10-31T12:13:01.510Z,26.90
2022-10-31T12:15:35.696Z,29.38
2022-10-31T12:18:08.299Z,30.38
2022-10-31T12:20:45.220Z,29.33
2022-10-31T12:23:30.848Z,25.38
2022-10-31T12:26:37.887Z,22.52
2022-10-31T12:29:21.187Z,26.27
2022-10-31T12:31:54.410Z,25.92
2022-10-31T12:34:52.305Z,34.17
2022-10-31T12:37:32.910Z,33.70
2022-10-31T12:40:05.572Z,31.70
2022-10-31T12:43:27.564Z,32.08
2022-10-31T12:45:59.292Z,32.63
2022-10-31T12:49:01.937Z,33.63
2022-10-31T12:51:43.147Z,34.80
2022-10-31T12:54:31.770Z,36.00
2022-10-31T12:57:12.027Z,37.55
2022-10-31T12:59:45.673Z,37.80
2022-10-31T13:02:42.728Z,34.75
2022-10-31T13:05:19.146Z,41.30
2022-10-31T13:08:05.922Z,40.13
2022-10-31T13:10:44.919Z,37.70
2022-10-31T13:13:19.467Z,40.65
2022-10-31T13:15:51.932Z,41.65
2022-10-31T13:18:28.330Z,53.45
2022-10-31T13:20:56.921Z,47.15
2022-10-31T13:23:50.307Z,45.17
2022-10-31T13:26:22.119Z,42.53
2022-10-31T13:28:55.863Z,48.63
2022-10-31T13:31:22.506Z,53.95
2022-10-31T13:33:54.267Z,50.88
2022-10-31T13:36:31.104Z,50.38
2022-10-31T13:39:03.469Z,48.22
2022-10-31T13:41:44.981Z,48.30
2022-10-31T13:44:21.392Z,47.35
2022-10-31T13:46:48.100Z,49.35
2022-10-31T13:49:29.854Z,47.42
2022-10-31T13:52:16.325Z,45.00
2022-10-31T13:54:45.776Z,44.78
2022-10-31T13:57:19.284Z,52.50
2022-10-31T13:59:52.806Z,52.50
2022-10-31T14:02:28.040Z,52.28
2022-10-31T14:05:04.441Z,52.22
2022-10-31T14:07:32.028Z,52.45
2022-10-31T14:10:02.698Z,52.25
2022-10-31T14:12:45.586Z,54.28
2022-10-31T14:15:23.236Z,56.60
2022-10-31T14:17:57.686Z,60.70
2022-10-31T14:20:39.494Z,52.70
2022-10-31T14:23:39.024Z,57.22
2022-10-31T14:26:17.439Z,63.67
2022-10-31T14:28:44.584Z,60.63
2022-10-31T14:31:33.141Z,64.90
2022-10-31T14:34:01.226Z,67.72
2022-10-31T14:37:11.671Z,74.50
2022-10-31T14:39:56.985Z,68.68
2022-10-31T14:42:59.613Z,74.35
2022-10-31T14:45:57.023Z,68.72
2022-10-31T14:48:52.277Z,66.93
2022-10-31T14:51:24.891Z,73.53
2022-10-31T14:53:56.447Z,62.67
2022-10-31T14:56:27.346Z,75.85
2022-10-31T14:58:55.859Z,74.25
2022-10-31T15:01:29.107Z,73.60
2022-10-31T15:04:25.005Z,78.38
2022-10-31T15:07:23.313Z,81.65
2022-10-31T15:10:03.549Z,74.20
2022-10-31T15:12:40.911Z,75.20
2022-10-31T15:15:24.983Z,74.55
2022-10-31T15:17:56.570Z,86.97
2022-10-31T15:20:27.325Z,83.88
2022-10-31T15:22:56.938Z,94.68
2022-10-31T15:25:25.619Z,84.93
2022-10-31T15:27:53.539Z,85.25
2022-10-31T15:30:25.572Z,93.68
2022-10-31T15:32:58.335Z,87.32
2022-10-31T15:35:30.096Z,95.38
2022-10-31T15:37:59.044Z,91.35
2022-10-31T15:40:27.440Z,94.55
2022-10-31T15:43:03.353Z,89.78
2022-10-31T15:45:31.572Z,85.40
2022-10-31T15:48:03.943Z,86.43
2022-10-31T15:50:36.751Z,101.53
2022-10-31T15:53:05.030Z,90.80
2022-10-31T15:55:35.571Z,87.60
2022-10-31T15:58:05.851Z,97.75
2022-10-31T16:00:34.764Z,100.60
2022-10-31T16:03:13.676Z,95.13
2022-10-31T16:05:45.675Z,93.97
2022-10-31T16:08:31.225Z,103.05
2022-10-31T16:11:08.899Z,106.45
2022-10-31T16:13:38.518Z,105.72
2022-10-31T16:19:01.449Z,104.32
2022-10-31T16:21:38.399Z,104.32
2022-10-31T16:24:19.351Z,102.30
2022-10-31T16:26:50.178Z,100.63
2022-10-31T16:29:34.890Z,166.15
2022-10-31T16:32:01.788Z,118.00
2022-10-31T16:34:28.275Z,96.68
2022-10-31T16:36:54.788Z,196.60
2022-10-31T16:39:21.398Z,153.40
2022-10-31T16:41:51.511Z,102.97
2022-10-31T16:44:25.812Z,201.50
2022-10-31T16:47:09.808Z,167.82
2022-10-31T16:49:36.314Z,138.20
2022-10-31T16:52:03.312Z,158.18
2022-10-31T16:54:30.511Z,88.18
2022-10-31T16:56:59.014Z,111.75
2022-10-31T16:59:25.497Z,232.43
2022-10-31T17:01:52.105Z,232.65
2022-10-31T17:04:19.952Z,142.07
2022-10-31T17:06:46.565Z,96.65
2022-10-31T17:09:13.146Z,99.00
2022-10-31T17:11:49.375Z,89.95
2022-10-31T17:14:17.440Z,81.38
2022-10-31T17:16:44.026Z,155.80
2022-10-31T17:19:11.777Z,117.13
2022-10-31T17:21:38.912Z,101.22
2022-10-31T17:24:06.134Z,144.73
2022-10-31T17:26:33.209Z,93.35
2022-10-31T17:29:01.994Z,88.50
2022-10-31T17:31:30.983Z,91.70
2022-10-31T17:34:02.376Z,99.57
2022-10-31T17:36:30.585Z,137.52
2022-10-31T17:38:57.272Z,95.03
2022-10-31T17:41:24.630Z,99.68
2022-10-31T17:43:58.030Z,111.22
2022-10-31T17:46:24.679Z,159.30
2022-10-31T17:48:51.291Z,189.77
2022-10-31T17:51:17.793Z,146.25
2022-10-31T17:53:45.094Z,190.18
2022-10-31T17:56:11.576Z,178.23
2022-10-31T17:58:38.684Z,238.30
2022-10-31T18:01:13.792Z,187.68
2022-10-31T18:03:43.532Z,185.68
2022-10-31T18:06:10.614Z,222.00
2022-10-31T18:08:39.562Z,182.00
2022-10-31T18:11:09.631Z,367.33
2022-10-31T18:13:36.845Z,423.95
2022-10-31T18:16:10.406Z,139.07
2022-10-31T18:18:36.917Z,245.82
2022-10-31T18:21:03.825Z,209.70
2022-10-31T18:23:31.287Z,216.38
2022-10-31T18:25:57.881Z,152.43
2022-10-31T18:28:24.519Z,159.35
2022-10-31T18:30:51.173Z,216.68
2022-10-31T18:33:17.620Z,241.65
2022-10-31T18:35:44.570Z,180.23
2022-10-31T18:38:11.680Z,125.70
2022-10-31T18:40:41.437Z,148.93
2022-10-31T18:43:08.007Z,150.25
2022-10-31T18:45:46.453Z,272.00
2022-10-31T18:48:15.725Z,273.80
2022-10-31T18:50:43.999Z,200.60
2022-10-31T18:53:10.484Z,193.50
2022-10-31T18:55:44.032Z,148.77
2022-10-31T18:58:13.999Z,148.10
2022-10-31T19:00:40.624Z,155.43
2022-10-31T19:03:07.142Z,114.88
2022-10-31T19:05:33.672Z,127.15
2022-10-31T19:08:00.155Z,120.82
2022-10-31T19:10:29.707Z,130.82
2022-10-31T19:12:56.165Z,99.10
2022-10-31T19:15:22.689Z,111.97
2022-10-31T19:17:49.558Z,102.22
2022-10-31T19:20:16.175Z,133.07
2022-10-31T19:22:46.143Z,143.20
2022-10-31T19:25:12.700Z,114.82
2022-10-31T19:27:39.408Z,98.32
2022-10-31T19:30:07.024Z,91.47
2022-10-31T19:32:33.847Z,102.93
2022-10-31T19:35:01.342Z,97.97
2022-10-31T19:37:27.778Z,84.93
2022-10-31T19:39:54.369Z,86.57
2022-10-31T19:42:20.842Z,100.32
2022-10-31T19:44:47.371Z,74.95
2022-10-31T19:47:13.801Z,89.57
2022-10-31T19:49:41.348Z,90.30
2022-10-31T19:52:08.066Z,82.13
2022-10-31T19:54:34.715Z,82.47
2022-10-31T19:57:01.298Z,97.63
2022-10-31T19:59:27.781Z,81.93
2022-10-31T20:01:54.388Z,71.05
2022-10-31T20:04:20.957Z,86.13
2022-10-31T20:06:47.507Z,80.00
2022-10-31T20:09:14.558Z,80.68
2022-10-31T20:11:43.285Z,81.70
2022-10-31T20:14:11.960Z,79.15
2022-10-31T20:16:38.983Z,74.97
2022-10-31T20:19:05.698Z,85.47
2022-10-31T20:21:36.838Z,74.55
2022-10-31T20:24:06.037Z,81.38
2022-10-31T20:26:33.807Z,25.10
2022-10-31T20:29:01.008Z,0.20
2022-10-31T20:31:33.279Z,0.15
2022-10-31T20:33:59.994Z,0.20
2022-10-31T20:36:28.766Z,0.20
2022-10-31T20:38:55.314Z,11.25
2022-10-31T20:41:21.957Z,47.95
2022-10-31T20:43:48.699Z,5.60
2022-10-31T20:46:21.037Z,0.17
2022-10-31T20:48:48.501Z,0.20
2022-10-31T20:51:28.473Z,32.22
2022-10-31T20:53:56.472Z,0.20
2022-10-31T20:56:24.995Z,0.20
2022-10-31T20:58:51.963Z,0.20
2022-10-31T21:01:24.183Z,0.10
2022-10-31T21:03:51.470Z,0.20
2022-10-31T21:06:19.157Z,0.20
2022-10-31T21:08:46.176Z,0.20
2022-10-31T21:11:18.986Z,0.20
2022-10-31T21:13:46.966Z,0.15
2022-10-31T21:16:24.653Z,0.20
2022-10-31T21:18:51.844Z,0.20
2022-10-31T21:21:26.272Z,0.20
2022-10-31T21:24:01.765Z,0.20
2022-10-31T21:26:30.836Z,0.20
2022-10-31T21:28:58.936Z,0.20
2022-10-31T21:31:25.977Z,0.20
2022-10-31T21:33:52.421Z,0.20
2022-10-31T21:36:19.028Z,0.20
2022-10-31T21:38:50.839Z,0.20
2022-10-31T21:41:17.746Z,0.20
2022-10-31T21:43:46.267Z,1.20
2022-10-31T21:46:20.457Z,0.38
2022-10-31T21:48:47.469Z,0.20
2022-10-31T21:51:19.561Z,0.10
2022-10-31T21:54:04.846Z,0.20
2022-10-31T21:56:32.264Z,0.20
2022-10-31T21:58:59.078Z,0.40
2022-10-31T22:01:26.943Z,0.20
2022-10-31T22:03:54.124Z,0.40
2022-10-31T22:06:21.098Z,3.50
2022-10-31T22:08:47.813Z,0.20
2022-10-31T22:11:16.295Z,0.30
2022-10-31T22:13:44.213Z,0.40
2022-10-31T22:16:12.686Z,0.20
2022-10-31T22:18:41.551Z,3.78
2022-10-31T22:21:16.700Z,0.95
2022-10-31T22:23:43.856Z,6.55
2022-10-31T22:26:15.063Z,8.00
2022-10-31T22:28:46.257Z,7.82
2022-10-31T22:31:14.587Z,26.88
2022-10-31T22:33:41.584Z,32.85
2022-10-31T22:36:11.034Z,32.15
2022-10-31T22:38:40.197Z,25.73
2022-10-31T22:41:10.972Z,28.98
2022-10-31T22:43:37.507Z,15.77
2022-10-31T22:46:06.321Z,3.00
2022-10-31T22:48:36.974Z,15.40
2022-10-31T22:51:14.996Z,30.27
2022-10-31T22:53:41.803Z,30.27
2022-10-31T22:56:13.988Z,24.25
2022-10-31T22:58:40.570Z,32.60
2022-10-31T23:01:15.303Z,36.92
2022-10-31T23:03:42.274Z,7.32
2022-10-31T23:06:12.084Z,2.53
2022-10-31T23:08:38.799Z,18.98
2022-10-31T23:11:21.539Z,20.55
2022-10-31T23:14:10.635Z,22.27
2022-10-31T23:16:41.464Z,21.77
2022-10-31T23:19:08.875Z,24.75
2022-10-31T23:21:55.829Z,22.08
2022-10-31T23:24:38.443Z,25.02
2022-10-31T23:27:10.190Z,31.80
2022-10-31T23:29:38.148Z,30.92
2022-10-31T23:32:06.091Z,28.65
2022-10-31T23:34:34.599Z,28.50
2022-10-31T23:37:01.394Z,26.92
2022-10-31T23:39:28.777Z,27.45
2022-10-31T23:41:55.362Z,24.92
2022-10-31T23:44:21.841Z,21.73
2022-10-31T23:46:48.320Z,22.48
2022-10-31T23:49:14.808Z,31.38
2022-10-31T23:51:41.555Z,22.60
2022-10-31T23:54:10.870Z,20.63
2022-10-31T23:56:37.407Z,20.73
2022-10-31T23:59:04.659Z,21.15
